createdAt,value
2023-05-12T00:01:02.882Z,101318.45
2023-05-12T00:03:29.290Z,101321.48
2023-05-12T00:05:55.725Z,101320.14
2023-05-12T00:08:22.136Z,101324.59
2023-05-12T00:10:48.461Z,101323.23
2023-05-12T00:13:14.979Z,101324.50
2023-05-12T00:15:41.339Z,101325.08
2023-05-12T00:18:07.919Z,101323.52
2023-05-12T00:20:34.383Z,101326.20
2023-05-12T00:23:00.657Z,101326.22
2023-05-12T00:25:27.014Z,101326.11
2023-05-12T00:27:53.276Z,101323.68
2023-05-12T00:30:20.508Z,101325.83
2023-05-12T00:32:46.952Z,101325.86
2023-05-12T00:35:13.520Z,101327.31
2023-05-12T00:37:39.748Z,101329.63
2023-05-12T00:40:06.805Z,101328.44
2023-05-12T00:42:34.386Z,101332.84
2023-05-12T00:45:01.209Z,101332.70
2023-05-12T00:47:27.958Z,101335.21
2023-05-12T00:49:54.420Z,101340.34
2023-05-12T00:52:20.923Z,101339.85
2023-05-12T00:54:47.944Z,101340.93
2023-05-12T00:57:14.437Z,101340.09
2023-05-12T00:59:40.768Z,101342.90
2023-05-12T01:02:07.891Z,101344.67
2023-05-12T01:04:35.128Z,101345.92
2023-05-12T01:07:11.730Z,101348.39
2023-05-12T01:09:38.144Z,101349.29
2023-05-12T01:12:04.861Z,101346.34
2023-05-12T01:14:33.459Z,101346.52
2023-05-12T01:17:02.889Z,101350.60
2023-05-12T01:19:48.412Z,101351.15
2023-05-12T01:22:16.492Z,101351.52
2023-05-12T01:24:57.031Z,101351.03
2023-05-12T01:27:26.683Z,101352.63
2023-05-12T01:29:57.642Z,101356.86
2023-05-12T01:32:24.145Z,101354.44
2023-05-12T01:34:51.529Z,101359.01
2023-05-12T01:37:18.305Z,101360.43
2023-05-12T01:39:44.658Z,101359.93
2023-05-12T01:42:16.708Z,101361.54
2023-05-12T01:44:43.247Z,101356.98
2023-05-12T01:47:10.606Z,101362.80
2023-05-12T01:49:38.149Z,101366.88
2023-05-12T01:52:06.226Z,101367.61
2023-05-12T01:54:32.934Z,101366.20
2023-05-12T01:56:59.257Z,101363.42
2023-05-12T01:59:26.022Z,101368.88
2023-05-12T02:01:52.717Z,101364.52
2023-05-12T02:04:24.496Z,101363.67
2023-05-12T02:06:51.497Z,101367.73
2023-05-12T02:09:17.925Z,101366.01
2023-05-12T02:11:44.406Z,101367.60
2023-05-12T02:14:11.106Z,101363.23
2023-05-12T02:16:37.745Z,101365.71
2023-05-12T02:19:04.347Z,101363.98
2023-05-12T02:21:32.119Z,101368.89
2023-05-12T02:23:58.535Z,101370.48
2023-05-12T02:26:24.881Z,101372.79
2023-05-12T02:28:51.601Z,101372.80
2023-05-12T02:31:18.285Z,101377.21
2023-05-12T02:33:44.689Z,101376.53
2023-05-12T02:36:11.173Z,101380.56
2023-05-12T02:38:39.234Z,101381.46
2023-05-12T02:41:06.129Z,101383.59
2023-05-12T02:43:32.738Z,101381.67
2023-05-12T02:45:59.069Z,101383.09
2023-05-12T02:48:26.012Z,101384.52
2023-05-12T02:50:52.681Z,101384.72
2023-05-12T02:53:19.117Z,101390.85
2023-05-12T02:55:45.402Z,101393.32
2023-05-12T02:58:11.719Z,101394.74
2023-05-12T03:00:38.012Z,101397.55
2023-05-12T03:03:04.379Z,101400.91
2023-05-12T03:05:30.807Z,101400.05
2023-05-12T03:07:58.327Z,101398.49
2023-05-12T03:10:25.065Z,101399.73
2023-05-12T03:12:52.525Z,101397.11
2023-05-12T03:15:18.798Z,101397.66
2023-05-12T03:17:45.146Z,101399.60
2023-05-12T03:20:11.656Z,101396.27
2023-05-12T03:22:38.125Z,101395.40
2023-05-12T03:25:05.989Z,101394.71
2023-05-12T03:27:32.402Z,101396.47
2023-05-12T03:30:01.542Z,101399.27
2023-05-12T03:32:28.939Z,101399.61
2023-05-12T03:34:55.384Z,101402.94
2023-05-12T03:37:22.082Z,101404.52
2023-05-12T03:39:48.603Z,101405.23
2023-05-12T03:42:15.202Z,101403.48
2023-05-12T03:44:42.004Z,101407.49
2023-05-12T03:47:08.601Z,101407.83
2023-05-12T03:49:35.965Z,101408.36
2023-05-12T03:52:02.329Z,101411.67
2023-05-12T03:54:28.669Z,101412.02
2023-05-12T03:56:55.243Z,101412.53
2023-05-12T03:59:21.823Z,101415.85
2023-05-12T04:01:48.309Z,101420.73
2023-05-12T04:04:14.686Z,101423.70
2023-05-12T04:06:41.050Z,101428.40
2023-05-12T04:09:07.293Z,101427.31
2023-05-12T04:11:36.199Z,101425.02
2023-05-12T04:14:03.437Z,101428.14
2023-05-12T04:16:29.785Z,101426.02
2023-05-12T04:18:58.222Z,101430.02
2023-05-12T04:21:24.637Z,101429.63
2023-05-12T04:23:54.513Z,101435.72
2023-05-12T04:26:23.548Z,101430.77
2023-05-12T04:28:49.909Z,101430.89
2023-05-12T04:31:16.635Z,101433.46
2023-05-12T04:33:43.128Z,101435.69
2023-05-12T04:36:09.923Z,101438.27
2023-05-12T04:38:36.756Z,101439.44
2023-05-12T04:41:03.413Z,101441.29
2023-05-12T04:46:00.778Z,101439.00
2023-05-12T04:48:28.470Z,101440.48
2023-05-12T04:50:59.182Z,101437.22
2023-05-12T04:53:26.523Z,101439.91
2023-05-12T04:55:52.902Z,101437.50
2023-05-12T04:58:19.264Z,101436.15
2023-05-12T05:00:46.239Z,101439.70
2023-05-12T05:03:12.660Z,101441.32
2023-05-12T05:05:38.981Z,101439.42
2023-05-12T05:08:05.400Z,101440.11
2023-05-12T05:10:34.604Z,101438.69
2023-05-12T05:13:00.864Z,101446.08
2023-05-12T05:15:27.222Z,101447.13
2023-05-12T05:17:53.801Z,101445.86
2023-05-12T05:20:27.612Z,101447.59
2023-05-12T05:22:55.277Z,101445.77
2023-05-12T05:25:21.755Z,101449.23
2023-05-12T05:27:48.777Z,101450.73
2023-05-12T05:30:17.479Z,101452.61
2023-05-12T05:32:46.256Z,101452.33
2023-05-12T05:35:12.762Z,101450.45
2023-05-12T05:37:46.696Z,101452.09
2023-05-12T05:40:13.811Z,101453.21
2023-05-12T05:42:40.213Z,101455.04
2023-05-12T05:45:07.265Z,101449.58
2023-05-12T05:47:34.089Z,101450.30
2023-05-12T05:50:00.526Z,101452.06
2023-05-12T05:52:27.021Z,101452.21
2023-05-12T05:54:53.357Z,101452.15
2023-05-12T05:57:21.062Z,101456.33
2023-05-12T05:59:47.434Z,101456.98
2023-05-12T06:02:15.810Z,101459.02
2023-05-12T06:04:42.202Z,101458.40
2023-05-12T06:07:08.529Z,101461.84
2023-05-12T06:09:34.839Z,101453.11
2023-05-12T06:12:01.101Z,101459.00
2023-05-12T06:14:27.408Z,101459.39
2023-05-12T06:16:54.849Z,101454.80
2023-05-12T06:19:23.397Z,101459.78
2023-05-12T06:21:51.921Z,101458.71
2023-05-12T06:24:18.303Z,101460.98
2023-05-12T06:26:44.780Z,101460.98
2023-05-12T06:29:11.028Z,101457.30
2023-05-12T06:31:37.439Z,101459.77
2023-05-12T06:34:03.821Z,101457.48
2023-05-12T06:36:30.181Z,101456.30
2023-05-12T06:38:56.645Z,101457.61
2023-05-12T06:41:24.328Z,101460.67
2023-05-12T06:43:51.507Z,101461.77
2023-05-12T06:46:20.273Z,101456.52
2023-05-12T06:48:46.764Z,101457.66
2023-05-12T06:51:13.294Z,101461.92
2023-05-12T06:53:40.692Z,101456.98
2023-05-12T06:56:07.975Z,101457.33
2023-05-12T06:58:34.318Z,101453.11
2023-05-12T07:01:00.584Z,101458.85
2023-05-12T07:03:26.896Z,101454.18
2023-05-12T07:05:53.336Z,101452.14
2023-05-12T07:08:19.734Z,101447.98
2023-05-12T07:10:46.206Z,101446.40
2023-05-12T07:13:12.628Z,101447.73
2023-05-12T07:15:38.961Z,101448.13
2023-05-12T07:18:05.592Z,101445.85
2023-05-12T07:20:32.033Z,101451.98
2023-05-12T07:22:58.384Z,101443.08
2023-05-12T07:25:24.795Z,101445.89
2023-05-12T07:27:51.232Z,101445.27
2023-05-12T07:30:17.626Z,101447.65
2023-05-12T07:32:44.001Z,101446.08
2023-05-12T07:35:10.324Z,101441.02
2023-05-12T07:37:36.736Z,101445.09
2023-05-12T07:40:04.012Z,101444.88
2023-05-12T07:42:30.331Z,101444.97
2023-05-12T07:44:56.630Z,101441.61
2023-05-12T07:47:22.876Z,101445.43
2023-05-12T07:49:49.120Z,101446.38
2023-05-12T07:52:15.417Z,101446.77
2023-05-12T07:54:43.279Z,101448.66
2023-05-12T07:57:12.084Z,101448.45
2023-05-12T07:59:38.387Z,101451.16
2023-05-12T08:02:04.942Z,101450.40
2023-05-12T08:04:31.311Z,101452.09
2023-05-12T08:06:57.634Z,101454.21
2023-05-12T08:09:23.947Z,101448.80
2023-05-12T08:11:51.543Z,101450.63
2023-05-12T08:14:18.217Z,101453.45
2023-05-12T08:16:45.746Z,101452.56
2023-05-12T08:19:13.226Z,101452.33
2023-05-12T08:21:39.867Z,101448.65
2023-05-12T08:24:06.260Z,101449.02
2023-05-12T08:26:32.546Z,101450.56
2023-05-12T08:29:00.018Z,101451.34
2023-05-12T08:31:26.731Z,101451.73
2023-05-12T08:34:09.106Z,101453.96
2023-05-12T08:36:37.189Z,101454.34
2023-05-12T08:39:03.643Z,101443.78
2023-05-12T08:41:42.944Z,101448.34
2023-05-12T08:44:10.821Z,101445.40
2023-05-12T08:46:37.956Z,101438.38
2023-05-12T08:49:05.784Z,101439.41
2023-05-12T08:51:32.558Z,101445.95
2023-05-12T08:53:58.863Z,101436.05
2023-05-12T08:58:55.736Z,101430.10
2023-05-12T09:01:23.979Z,101435.19
2023-05-12T09:03:51.729Z,101441.04
2023-05-12T09:06:18.208Z,101437.11
2023-05-12T09:08:44.837Z,101429.89
2023-05-12T09:11:14.088Z,101430.95
2023-05-12T09:13:59.494Z,101427.23
2023-05-12T09:16:38.854Z,101433.30
2023-05-12T09:19:06.994Z,101433.11
2023-05-12T09:21:33.952Z,101433.94
2023-05-12T09:24:06.566Z,101428.31
2023-05-12T09:26:50.710Z,101431.05
2023-05-12T09:29:30.654Z,101426.82
2023-05-12T09:32:03.064Z,101425.92
2023-05-12T09:34:34.834Z,101417.95
2023-05-12T09:37:04.381Z,101416.86
2023-05-12T09:39:30.902Z,101418.66
2023-05-12T09:41:57.332Z,101419.11
2023-05-12T09:44:24.454Z,101419.11
2023-05-12T09:46:51.044Z,101420.00
2023-05-12T09:49:19.657Z,101422.67
2023-05-12T09:51:46.608Z,101418.48
2023-05-12T09:54:13.336Z,101419.46
2023-05-12T09:56:40.483Z,101417.68
2023-05-12T09:59:10.400Z,101418.52
2023-05-12T10:01:37.335Z,101411.36
2023-05-12T10:04:06.977Z,101416.84
2023-05-12T10:06:40.313Z,101417.82
2023-05-12T10:09:18.602Z,101408.02
2023-05-12T10:11:46.478Z,101413.71
2023-05-12T10:14:13.199Z,101410.79
2023-05-12T10:16:40.791Z,101408.14
2023-05-12T10:19:07.921Z,101409.95
2023-05-12T10:21:36.043Z,101402.41
2023-05-12T10:24:03.105Z,101400.70
2023-05-12T10:26:31.730Z,101406.64
2023-05-12T10:28:58.683Z,101406.42
2023-05-12T10:31:27.148Z,101404.42
2023-05-12T10:34:01.212Z,101404.70
2023-05-12T10:36:28.098Z,101403.71
2023-05-12T10:38:55.840Z,101405.16
2023-05-12T10:41:30.193Z,101399.31
2023-05-12T10:43:56.645Z,101398.52
2023-05-12T10:46:25.625Z,101405.42
2023-05-12T10:48:54.863Z,101401.54
2023-05-12T10:51:25.746Z,101403.92
2023-05-12T10:54:00.374Z,101398.94
2023-05-12T10:56:30.552Z,101392.15
2023-05-12T10:59:24.130Z,101393.32
2023-05-12T11:02:00.309Z,101393.27
2023-05-12T11:04:50.868Z,101387.42
2023-05-12T11:07:22.584Z,101390.33
2023-05-12T11:12:18.804Z,101388.48
2023-05-12T11:14:46.223Z,101386.88
2023-05-12T11:17:13.507Z,101387.20
2023-05-12T11:19:45.762Z,101389.56
2023-05-12T11:22:12.279Z,101387.13
2023-05-12T11:24:41.617Z,101387.39
2023-05-12T11:27:12.971Z,101380.36
2023-05-12T11:29:41.655Z,101390.83
2023-05-12T11:32:12.501Z,101379.64
2023-05-12T11:34:38.882Z,101383.38
2023-05-12T11:37:06.046Z,101377.58
2023-05-12T11:39:32.518Z,101378.67
2023-05-12T11:42:12.023Z,101377.81
2023-05-12T11:44:49.700Z,101370.42
2023-05-12T11:47:18.351Z,101378.81
2023-05-12T11:49:52.580Z,101374.31
2023-05-12T11:52:20.850Z,101387.63
2023-05-12T11:54:51.609Z,101378.36
2023-05-12T11:57:32.178Z,101377.77
2023-05-12T12:00:04.004Z,101378.86
2023-05-12T12:02:32.828Z,101375.44
2023-05-12T12:04:59.823Z,101368.79
2023-05-12T12:07:30.711Z,101372.17
2023-05-12T12:09:57.434Z,101374.10
2023-05-12T12:12:23.888Z,101379.05
2023-05-12T12:14:50.165Z,101379.55
2023-05-12T12:17:16.396Z,101379.71
2023-05-12T12:19:42.670Z,101384.23
2023-05-12T12:22:08.974Z,101383.81
2023-05-12T12:24:35.400Z,101370.71
2023-05-12T12:27:01.668Z,101370.48
2023-05-12T12:29:28.130Z,101365.29
2023-05-12T12:31:55.131Z,101365.52
2023-05-12T12:34:21.950Z,101365.29
2023-05-12T12:36:48.327Z,101361.59
2023-05-12T12:39:14.688Z,101359.34
2023-05-12T12:41:41.605Z,101361.89
2023-05-12T12:44:08.906Z,101365.62
2023-05-12T12:46:35.663Z,101364.38
2023-05-12T12:49:02.004Z,101359.70
2023-05-12T12:51:42.132Z,101357.89
2023-05-12T12:54:11.676Z,101350.58
2023-05-12T12:56:38.642Z,101348.83
2023-05-12T12:59:05.634Z,101348.59
2023-05-12T13:01:33.361Z,101352.39
2023-05-12T13:03:59.807Z,101347.79
2023-05-12T13:06:26.894Z,101344.52
2023-05-12T13:08:55.747Z,101350.09
2023-05-12T13:11:22.175Z,101348.11
2023-05-12T13:13:48.509Z,101341.51
2023-05-12T13:16:15.101Z,101344.83
2023-05-12T13:18:41.654Z,101344.42
2023-05-12T13:21:08.148Z,101341.96
2023-05-12T13:23:34.658Z,101339.94
2023-05-12T13:26:00.986Z,101328.41
2023-05-12T13:28:28.226Z,101325.55
2023-05-12T13:30:54.648Z,101323.45
2023-05-12T13:33:21.092Z,101321.38
2023-05-12T13:35:47.423Z,101321.89
2023-05-12T13:38:13.845Z,101318.19
2023-05-12T13:40:40.803Z,101316.27
2023-05-12T13:43:07.748Z,101314.59
2023-05-12T13:45:34.039Z,101315.45
2023-05-12T13:48:00.525Z,101315.20
2023-05-12T13:50:27.250Z,101315.58
2023-05-12T13:52:53.553Z,101314.52
2023-05-12T13:55:21.554Z,101312.54
2023-05-12T13:57:48.632Z,101304.05
2023-05-12T14:00:16.476Z,101301.62
2023-05-12T14:02:45.346Z,101296.02
2023-05-12T14:05:11.825Z,101305.84
2023-05-12T14:07:38.177Z,101300.40
2023-05-12T14:10:04.971Z,101307.40
2023-05-12T14:12:31.519Z,101306.00
2023-05-12T14:15:07.350Z,101294.62
2023-05-12T14:17:45.651Z,101300.35
2023-05-12T14:20:12.152Z,101299.67
2023-05-12T14:22:38.732Z,101308.81
2023-05-12T14:25:05.583Z,101308.39
2023-05-12T14:27:31.952Z,101306.55
2023-05-12T14:29:58.295Z,101309.62
2023-05-12T14:32:24.741Z,101312.10
2023-05-12T14:34:51.126Z,101313.04
2023-05-12T14:37:17.399Z,101312.02
2023-05-12T14:39:43.812Z,101303.64
2023-05-12T14:42:10.169Z,101308.59
2023-05-12T14:44:36.813Z,101298.73
2023-05-12T14:47:03.076Z,101289.95
2023-05-12T14:49:29.411Z,101295.38
2023-05-12T14:51:55.676Z,101290.35
2023-05-12T14:54:25.281Z,101293.70
2023-05-12T14:56:52.648Z,101297.14
2023-05-12T14:59:19.143Z,101289.58
2023-05-12T15:01:45.816Z,101283.09
2023-05-12T15:04:12.547Z,101293.55
2023-05-12T15:06:39.210Z,101295.87
2023-05-12T15:09:07.903Z,101293.41
2023-05-12T15:11:36.115Z,101295.59
2023-05-12T15:14:03.577Z,101287.06
2023-05-12T15:16:30.226Z,101293.48
2023-05-12T15:18:56.617Z,101295.64
2023-05-12T15:21:22.990Z,101291.71
2023-05-12T15:23:49.319Z,101298.23
2023-05-12T15:26:32.023Z,101298.99
2023-05-12T15:28:59.810Z,101295.56
2023-05-12T15:31:28.570Z,101295.93
2023-05-12T15:33:56.143Z,101299.87
2023-05-12T15:36:22.730Z,101303.09
2023-05-12T15:38:49.090Z,101300.23
2023-05-12T15:41:15.414Z,101298.27
2023-05-12T15:43:41.748Z,101298.51
2023-05-12T15:46:09.903Z,101296.89
2023-05-12T15:48:36.250Z,101300.48
2023-05-12T15:51:03.438Z,101293.95
2023-05-12T15:53:30.302Z,101296.61
2023-05-12T15:56:04.005Z,101290.09
2023-05-12T16:04:44.597Z,101293.83
2023-05-12T16:07:12.552Z,101294.29
2023-05-12T16:09:38.899Z,101292.27
2023-05-12T16:12:07.429Z,101291.08
2023-05-12T16:14:35.547Z,101291.24
2023-05-12T16:17:02.698Z,101289.05
2023-05-12T16:19:29.084Z,101285.24
2023-05-12T16:21:57.700Z,101290.90
2023-05-12T16:24:27.529Z,101287.29
2023-05-12T16:26:58.149Z,101289.58
2023-05-12T16:29:24.603Z,101290.20
2023-05-12T16:31:51.350Z,101290.73
2023-05-12T16:34:19.087Z,101295.87
2023-05-12T16:36:45.526Z,101294.55
2023-05-12T16:39:12.238Z,101293.42
2023-05-12T16:41:38.728Z,101293.29
2023-05-12T16:44:08.014Z,101295.38
2023-05-12T16:46:35.071Z,101295.88
2023-05-12T16:49:02.210Z,101299.23
2023-05-12T16:51:32.305Z,101295.13
2023-05-12T16:53:58.651Z,101297.86
2023-05-12T16:56:26.733Z,101298.48
2023-05-12T16:58:53.026Z,101298.25
2023-05-12T17:01:19.460Z,101302.22
2023-05-12T17:03:45.956Z,101303.89
2023-05-12T17:06:12.491Z,101300.67
2023-05-12T17:08:38.873Z,101301.49
2023-05-12T17:11:05.439Z,101303.64
2023-05-12T17:13:37.592Z,101308.14
2023-05-12T17:16:04.101Z,101306.35
2023-05-12T17:18:30.678Z,101310.04
2023-05-12T17:20:57.811Z,101307.66
2023-05-12T17:23:26.005Z,101306.94
2023-05-12T17:25:52.831Z,101311.74
2023-05-12T17:28:20.337Z,101314.37
2023-05-12T17:30:47.312Z,101318.15
2023-05-12T17:33:14.820Z,101319.92
2023-05-12T17:35:41.166Z,101317.81
2023-05-12T17:38:07.694Z,101317.41
2023-05-12T17:40:34.000Z,101319.80
2023-05-12T17:43:00.361Z,101320.39
2023-05-12T17:45:27.695Z,101322.14
2023-05-12T17:47:56.435Z,101322.55
2023-05-12T17:50:23.014Z,101321.71
2023-05-12T17:52:49.448Z,101328.38
2023-05-12T17:55:16.696Z,101332.52
2023-05-12T17:57:43.116Z,101332.61
2023-05-12T18:00:10.080Z,101335.56
2023-05-12T18:02:44.117Z,101333.66
2023-05-12T18:05:10.504Z,101330.45
2023-05-12T18:07:36.860Z,101333.31
2023-05-12T18:10:07.504Z,101337.05
2023-05-12T18:12:33.994Z,101339.36
2023-05-12T18:15:00.352Z,101343.13
2023-05-12T18:17:26.995Z,101344.21
2023-05-12T18:19:53.608Z,101347.29
2023-05-12T18:22:19.917Z,101352.84
2023-05-12T18:24:47.161Z,101358.55
2023-05-12T18:27:13.548Z,101359.31
2023-05-12T18:29:39.906Z,101364.14
2023-05-12T18:32:06.240Z,101362.38
2023-05-12T18:34:32.608Z,101362.60
2023-05-12T18:37:02.234Z,101364.05
2023-05-12T18:39:28.528Z,101369.64
2023-05-12T18:41:54.907Z,101368.07
2023-05-12T18:44:21.502Z,101374.70
2023-05-12T18:46:47.870Z,101373.17
2023-05-12T18:49:14.282Z,101380.66
2023-05-12T18:51:40.598Z,101377.83
2023-05-12T18:54:06.870Z,101377.30
2023-05-12T18:56:33.639Z,101381.23
2023-05-12T18:59:00.455Z,101382.83
2023-05-12T19:01:27.217Z,101388.69
2023-05-12T19:03:53.693Z,101390.30
2023-05-12T19:06:20.807Z,101390.29
2023-05-12T19:08:47.130Z,101389.89
2023-05-12T19:11:13.407Z,101388.44
2023-05-12T19:13:42.712Z,101391.58
2023-05-12T19:16:09.105Z,101396.36
2023-05-12T19:18:35.482Z,101395.27
2023-05-12T19:21:02.064Z,101400.88
2023-05-12T19:23:29.912Z,101401.70
2023-05-12T19:25:56.194Z,101399.91
2023-05-12T19:28:22.603Z,101401.77
2023-05-12T19:30:48.930Z,101405.02
2023-05-12T19:33:17.223Z,101403.70
2023-05-12T19:35:43.807Z,101403.99
2023-05-12T19:38:10.028Z,101407.26
2023-05-12T19:40:36.315Z,101413.35
2023-05-12T19:43:04.370Z,101416.24
2023-05-12T19:45:30.690Z,101415.64
2023-05-12T19:47:57.025Z,101416.60
2023-05-12T19:50:23.326Z,101413.15
2023-05-12T19:52:49.966Z,101412.86
2023-05-12T19:55:16.356Z,101411.66
2023-05-12T19:57:43.277Z,101414.21
2023-05-12T20:00:10.221Z,101414.43
2023-05-12T20:02:40.016Z,101419.75
2023-05-12T20:05:06.935Z,101419.07
2023-05-12T20:07:33.182Z,101422.61
2023-05-12T20:10:00.551Z,101421.23
2023-05-12T20:12:26.974Z,101417.54
2023-05-12T20:14:53.201Z,101418.44
2023-05-12T20:17:19.604Z,101419.85
2023-05-12T20:19:45.883Z,101421.46
2023-05-12T20:22:12.263Z,101421.27
2023-05-12T20:24:38.550Z,101418.50
2023-05-12T20:27:04.946Z,101419.36
2023-05-12T20:29:31.805Z,101420.80
2023-05-12T20:31:58.105Z,101420.59
2023-05-12T20:34:24.382Z,101419.70
2023-05-12T20:36:50.666Z,101420.59
2023-05-12T20:39:17.575Z,101421.10
2023-05-12T20:41:43.873Z,101422.31
2023-05-12T20:44:10.230Z,101421.03
2023-05-12T20:46:38.455Z,101426.83
2023-05-12T20:49:05.259Z,101425.93
2023-05-12T20:51:31.783Z,101427.48
2023-05-12T20:53:58.096Z,101429.54
2023-05-12T20:56:25.773Z,101426.31
2023-05-12T20:58:52.302Z,101426.63
2023-05-12T21:01:18.734Z,101432.77
2023-05-12T21:03:45.356Z,101433.80
2023-05-12T21:06:11.671Z,101428.31
2023-05-12T21:08:38.109Z,101429.99
2023-05-12T21:11:12.993Z,101429.41
2023-05-12T21:13:39.330Z,101434.83
2023-05-12T21:16:05.730Z,101433.91
2023-05-12T21:18:32.442Z,101438.10
2023-05-12T21:20:58.732Z,101437.70
2023-05-12T21:23:25.381Z,101439.75
2023-05-12T21:25:52.630Z,101442.16
2023-05-12T21:28:18.985Z,101443.81
2023-05-12T21:30:45.347Z,101442.52
2023-05-12T21:33:11.690Z,101444.36
2023-05-12T21:35:38.126Z,101446.05
2023-05-12T21:38:06.557Z,101442.99
2023-05-12T21:40:32.875Z,101442.46
2023-05-12T21:42:59.355Z,101451.19
2023-05-12T21:45:25.771Z,101454.27
2023-05-12T21:47:52.597Z,101453.88
2023-05-12T21:50:20.996Z,101460.52
2023-05-12T21:52:50.119Z,101459.94
2023-05-12T21:55:23.320Z,101464.79
2023-05-12T21:57:49.646Z,101460.84
2023-05-12T22:00:19.302Z,101463.89
2023-05-12T22:02:46.935Z,101463.65
2023-05-12T22:05:14.088Z,101462.48
2023-05-12T22:07:40.587Z,101462.92
2023-05-12T22:10:07.085Z,101459.30
2023-05-12T22:12:33.541Z,101462.20
2023-05-12T22:14:59.892Z,101460.50
2023-05-12T22:17:26.241Z,101464.98
2023-05-12T22:19:52.671Z,101463.98
2023-05-12T22:22:19.043Z,101463.20
2023-05-12T22:24:45.435Z,101459.80
2023-05-12T22:27:11.906Z,101462.52
2023-05-12T22:29:38.239Z,101459.61
2023-05-12T22:32:04.795Z,101461.98
2023-05-12T22:34:31.158Z,101462.10
2023-05-12T22:36:57.466Z,101457.92
2023-05-12T22:39:23.825Z,101462.37
2023-05-12T22:41:50.363Z,101461.20
2023-05-12T22:44:16.595Z,101468.27
2023-05-12T22:46:42.960Z,101462.86
2023-05-12T22:49:09.231Z,101459.92
2023-05-12T22:51:35.554Z,101458.74
2023-05-12T22:54:01.914Z,101459.52
2023-05-12T22:56:28.295Z,101460.28
2023-05-12T22:58:54.637Z,101461.38
2023-05-12T23:01:20.957Z,101457.25
2023-05-12T23:03:47.316Z,101458.34
2023-05-12T23:06:13.645Z,101454.19
2023-05-12T23:08:39.915Z,101461.98
2023-05-12T23:11:06.327Z,101462.87
2023-05-12T23:13:32.607Z,101460.98
2023-05-12T23:15:58.904Z,101460.99
2023-05-12T23:18:25.241Z,101463.31
2023-05-12T23:20:51.561Z,101460.16
2023-05-12T23:23:17.902Z,101458.60
2023-05-12T23:25:46.247Z,101460.22
2023-05-12T23:28:12.513Z,101454.63
2023-05-12T23:30:38.834Z,101456.39
2023-05-12T23:33:05.297Z,101451.84
2023-05-12T23:35:31.700Z,101453.80
2023-05-12T23:37:58.213Z,101455.05
2023-05-12T23:40:24.622Z,101452.27
2023-05-12T23:42:50.912Z,101449.30
2023-05-12T23:45:17.643Z,101447.93
2023-05-12T23:47:43.990Z,101452.52
2023-05-12T23:50:10.768Z,101453.39
2023-05-12T23:52:37.100Z,101447.07
2023-05-12T23:55:03.632Z,101452.36
2023-05-12T23:57:29.911Z,101452.36
2023-05-12T23:59:56.152Z,101448.67
